sensor_id;sensor_type;location;lat;lon;timestamp;P1;durP1;ratioP1;P2;durP2;ratioP2
74108;SDS011;62466;47.566;7.786;2023-05-27T00:00:17;9.25;;;6.10;;
74108;SDS011;62466;47.566;7.786;2023-05-27T00:02:43;10.57;;;6.40;;
74108;SDS011;62466;47.566;7.786;2023-05-27T00:05:08;11.27;;;7.30;;
74108;SDS011;62466;47.566;7.786;2023-05-27T00:07:34;8.93;;;6.68;;
74108;SDS011;62466;47.566;7.786;2023-05-27T00:09:59;11.63;;;7.03;;
74108;SDS011;62466;47.566;7.786;2023-05-27T00:12:25;11.93;;;6.78;;
74108;SDS011;62466;47.566;7.786;2023-05-27T00:14:50;12.10;;;7.43;;
74108;SDS011;62466;47.566;7.786;2023-05-27T00:17:16;10.10;;;6.30;;
74108;SDS011;62466;47.566;7.786;2023-05-27T00:19:42;9.82;;;6.55;;
74108;SDS011;62466;47.566;7.786;2023-05-27T00:22:10;13.82;;;7.25;;
74108;SDS011;62466;47.566;7.786;2023-05-27T00:24:36;11.70;;;6.57;;
74108;SDS011;62466;47.566;7.786;2023-05-27T00:27:07;8.68;;;6.50;;
74108;SDS011;62466;47.566;7.786;2023-05-27T00:29:33;12.90;;;6.70;;
74108;SDS011;62466;47.566;7.786;2023-05-27T00:32:02;10.93;;;5.93;;
74108;SDS011;62466;47.566;7.786;2023-05-27T00:34:30;12.68;;;7.18;;
74108;SDS011;62466;47.566;7.786;2023-05-27T00:36:56;7.90;;;5.75;;
74108;SDS011;62466;47.566;7.786;2023-05-27T00:39:22;9.32;;;6.07;;
74108;SDS011;62466;47.566;7.786;2023-05-27T00:41:48;10.20;;;6.00;;
74108;SDS011;62466;47.566;7.786;2023-05-27T00:44:15;7.45;;;5.93;;
74108;SDS011;62466;47.566;7.786;2023-05-27T00:46:41;13.65;;;6.78;;
74108;SDS011;62466;47.566;7.786;2023-05-27T00:49:07;9.45;;;5.93;;
74108;SDS011;62466;47.566;7.786;2023-05-27T00:51:33;10.30;;;7.13;;
74108;SDS011;62466;47.566;7.786;2023-05-27T00:53:58;9.00;;;6.18;;
74108;SDS011;62466;47.566;7.786;2023-05-27T00:56:24;9.75;;;5.88;;
74108;SDS011;62466;47.566;7.786;2023-05-27T00:58:51;9.50;;;6.32;;
74108;SDS011;62466;47.566;7.786;2023-05-27T01:01:17;9.98;;;5.90;;
74108;SDS011;62466;47.566;7.786;2023-05-27T01:03:42;9.38;;;6.55;;
74108;SDS011;62466;47.566;7.786;2023-05-27T01:06:10;8.38;;;6.00;;
74108;SDS011;62466;47.566;7.786;2023-05-27T01:08:41;8.65;;;6.10;;
74108;SDS011;62466;47.566;7.786;2023-05-27T01:11:19;8.38;;;6.15;;
74108;SDS011;62466;47.566;7.786;2023-05-27T01:13:50;9.45;;;6.60;;
74108;SDS011;62466;47.566;7.786;2023-05-27T01:16:18;8.13;;;6.03;;
74108;SDS011;62466;47.566;7.786;2023-05-27T01:18:44;10.90;;;6.40;;
74108;SDS011;62466;47.566;7.786;2023-05-27T01:21:12;9.20;;;6.47;;
74108;SDS011;62466;47.566;7.786;2023-05-27T01:23:41;9.55;;;6.75;;
74108;SDS011;62466;47.566;7.786;2023-05-27T01:26:07;10.75;;;7.32;;
74108;SDS011;62466;47.566;7.786;2023-05-27T01:28:32;12.63;;;6.72;;
74108;SDS011;62466;47.566;7.786;2023-05-27T01:31:06;8.82;;;6.65;;
74108;SDS011;62466;47.566;7.786;2023-05-27T01:33:38;13.15;;;6.65;;
74108;SDS011;62466;47.566;7.786;2023-05-27T01:36:07;10.70;;;6.55;;
74108;SDS011;62466;47.566;7.786;2023-05-27T01:38:42;11.77;;;6.47;;
74108;SDS011;62466;47.566;7.786;2023-05-27T01:41:09;9.57;;;6.15;;
74108;SDS011;62466;47.566;7.786;2023-05-27T01:43:36;10.48;;;7.05;;
74108;SDS011;62466;47.566;7.786;2023-05-27T01:46:03;10.32;;;6.57;;
74108;SDS011;62466;47.566;7.786;2023-05-27T01:48:28;14.23;;;6.90;;
74108;SDS011;62466;47.566;7.786;2023-05-27T01:50:54;12.63;;;6.65;;
74108;SDS011;62466;47.566;7.786;2023-05-27T01:53:19;9.65;;;6.22;;
74108;SDS011;62466;47.566;7.786;2023-05-27T01:55:46;11.75;;;6.93;;
74108;SDS011;62466;47.566;7.786;2023-05-27T01:58:12;8.73;;;5.95;;
74108;SDS011;62466;47.566;7.786;2023-05-27T02:00:38;8.38;;;5.50;;
74108;SDS011;62466;47.566;7.786;2023-05-27T02:03:03;8.70;;;6.28;;
74108;SDS011;62466;47.566;7.786;2023-05-27T02:05:29;8.85;;;6.32;;
74108;SDS011;62466;47.566;7.786;2023-05-27T02:07:55;8.02;;;5.72;;
74108;SDS011;62466;47.566;7.786;2023-05-27T02:10:20;9.90;;;6.03;;
74108;SDS011;62466;47.566;7.786;2023-05-27T02:12:46;13.68;;;7.20;;
74108;SDS011;62466;47.566;7.786;2023-05-27T02:15:13;9.05;;;6.15;;
74108;SDS011;62466;47.566;7.786;2023-05-27T02:17:41;9.68;;;6.07;;
74108;SDS011;62466;47.566;7.786;2023-05-27T02:20:10;12.48;;;6.57;;
74108;SDS011;62466;47.566;7.786;2023-05-27T02:22:36;11.93;;;6.43;;
74108;SDS011;62466;47.566;7.786;2023-05-27T02:25:01;7.95;;;6.75;;
74108;SDS011;62466;47.566;7.786;2023-05-27T02:27:27;12.10;;;6.70;;
74108;SDS011;62466;47.566;7.786;2023-05-27T02:29:53;15.52;;;7.03;;
74108;SDS011;62466;47.566;7.786;2023-05-27T02:32:19;20.48;;;9.20;;
74108;SDS011;62466;47.566;7.786;2023-05-27T02:34:45;18.70;;;9.23;;
74108;SDS011;62466;47.566;7.786;2023-05-27T02:37:11;22.92;;;9.65;;
74108;SDS011;62466;47.566;7.786;2023-05-27T02:39:37;21.17;;;10.32;;
74108;SDS011;62466;47.566;7.786;2023-05-27T02:42:05;26.20;;;11.32;;
74108;SDS011;62466;47.566;7.786;2023-05-27T02:44:31;34.72;;;12.80;;
74108;SDS011;62466;47.566;7.786;2023-05-27T02:46:57;24.48;;;11.27;;
74108;SDS011;62466;47.566;7.786;2023-05-27T02:49:22;19.92;;;10.20;;
74108;SDS011;62466;47.566;7.786;2023-05-27T02:51:48;21.90;;;10.15;;
74108;SDS011;62466;47.566;7.786;2023-05-27T02:54:14;15.15;;;7.65;;
74108;SDS011;62466;47.566;7.786;2023-05-27T02:56:40;15.43;;;7.65;;
74108;SDS011;62466;47.566;7.786;2023-05-27T02:59:05;14.75;;;7.50;;
74108;SDS011;62466;47.566;7.786;2023-05-27T03:01:31;15.63;;;8.30;;
74108;SDS011;62466;47.566;7.786;2023-05-27T03:03:57;15.63;;;8.05;;
74108;SDS011;62466;47.566;7.786;2023-05-27T03:06:22;17.05;;;8.00;;
74108;SDS011;62466;47.566;7.786;2023-05-27T03:08:48;15.35;;;7.78;;
74108;SDS011;62466;47.566;7.786;2023-05-27T03:11:14;14.52;;;7.45;;
74108;SDS011;62466;47.566;7.786;2023-05-27T03:13:39;13.30;;;7.38;;
74108;SDS011;62466;47.566;7.786;2023-05-27T03:16:05;14.65;;;8.20;;
74108;SDS011;62466;47.566;7.786;2023-05-27T03:18:31;16.58;;;7.90;;
74108;SDS011;62466;47.566;7.786;2023-05-27T03:20:57;16.45;;;7.70;;
74108;SDS011;62466;47.566;7.786;2023-05-27T03:23:23;14.82;;;7.35;;
74108;SDS011;62466;47.566;7.786;2023-05-27T03:25:48;13.63;;;7.55;;
74108;SDS011;62466;47.566;7.786;2023-05-27T03:28:15;10.68;;;7.00;;
74108;SDS011;62466;47.566;7.786;2023-05-27T03:30:41;10.43;;;7.13;;
74108;SDS011;62466;47.566;7.786;2023-05-27T03:33:15;11.77;;;6.93;;
74108;SDS011;62466;47.566;7.786;2023-05-27T03:35:40;11.00;;;6.18;;
74108;SDS011;62466;47.566;7.786;2023-05-27T03:38:06;11.38;;;6.63;;
74108;SDS011;62466;47.566;7.786;2023-05-27T03:40:32;10.57;;;6.63;;
74108;SDS011;62466;47.566;7.786;2023-05-27T03:42:58;14.85;;;6.25;;
74108;SDS011;62466;47.566;7.786;2023-05-27T03:45:23;12.82;;;6.78;;
74108;SDS011;62466;47.566;7.786;2023-05-27T03:47:50;10.20;;;6.53;;
74108;SDS011;62466;47.566;7.786;2023-05-27T03:50:18;11.07;;;6.47;;
74108;SDS011;62466;47.566;7.786;2023-05-27T03:52:43;11.13;;;7.03;;
74108;SDS011;62466;47.566;7.786;2023-05-27T03:55:09;11.15;;;6.78;;
74108;SDS011;62466;47.566;7.786;2023-05-27T03:57:35;11.63;;;6.50;;
74108;SDS011;62466;47.566;7.786;2023-05-27T04:00:01;14.48;;;7.50;;
74108;SDS011;62466;47.566;7.786;2023-05-27T04:02:35;9.23;;;6.50;;
74108;SDS011;62466;47.566;7.786;2023-05-27T04:05:01;14.30;;;7.07;;
74108;SDS011;62466;47.566;7.786;2023-05-27T04:07:26;10.88;;;7.10;;
74108;SDS011;62466;47.566;7.786;2023-05-27T04:09:52;10.43;;;6.82;;
74108;SDS011;62466;47.566;7.786;2023-05-27T04:12:18;7.50;;;6.03;;
74108;SDS011;62466;47.566;7.786;2023-05-27T04:14:44;9.90;;;6.63;;
74108;SDS011;62466;47.566;7.786;2023-05-27T04:17:09;10.52;;;6.50;;
74108;SDS011;62466;47.566;7.786;2023-05-27T04:19:37;10.40;;;6.28;;
74108;SDS011;62466;47.566;7.786;2023-05-27T04:22:03;10.45;;;5.85;;
74108;SDS011;62466;47.566;7.786;2023-05-27T04:24:31;9.07;;;6.47;;
74108;SDS011;62466;47.566;7.786;2023-05-27T04:26:57;13.43;;;6.25;;
74108;SDS011;62466;47.566;7.786;2023-05-27T04:29:22;8.13;;;6.10;;
74108;SDS011;62466;47.566;7.786;2023-05-27T04:31:48;9.68;;;6.78;;
74108;SDS011;62466;47.566;7.786;2023-05-27T04:34:18;11.10;;;6.68;;
74108;SDS011;62466;47.566;7.786;2023-05-27T04:36:44;9.00;;;6.05;;
74108;SDS011;62466;47.566;7.786;2023-05-27T04:41:44;8.68;;;5.80;;
74108;SDS011;62466;47.566;7.786;2023-05-27T04:44:17;9.55;;;6.53;;
74108;SDS011;62466;47.566;7.786;2023-05-27T04:46:45;9.88;;;5.88;;
74108;SDS011;62466;47.566;7.786;2023-05-27T04:49:11;10.90;;;6.82;;
74108;SDS011;62466;47.566;7.786;2023-05-27T04:51:37;13.02;;;7.22;;
74108;SDS011;62466;47.566;7.786;2023-05-27T04:54:03;13.18;;;7.35;;
74108;SDS011;62466;47.566;7.786;2023-05-27T04:56:32;11.40;;;6.63;;
74108;SDS011;62466;47.566;7.786;2023-05-27T04:58:57;14.80;;;6.00;;
74108;SDS011;62466;47.566;7.786;2023-05-27T05:01:29;11.25;;;7.55;;
74108;SDS011;62466;47.566;7.786;2023-05-27T05:04:11;11.18;;;6.80;;
74108;SDS011;62466;47.566;7.786;2023-05-27T05:06:43;11.60;;;6.68;;
74108;SDS011;62466;47.566;7.786;2023-05-27T05:09:09;9.70;;;6.60;;
74108;SDS011;62466;47.566;7.786;2023-05-27T05:11:36;10.55;;;7.50;;
74108;SDS011;62466;47.566;7.786;2023-05-27T05:14:02;10.98;;;6.90;;
74108;SDS011;62466;47.566;7.786;2023-05-27T05:16:28;10.25;;;6.93;;
74108;SDS011;62466;47.566;7.786;2023-05-27T05:18:54;9.88;;;5.90;;
74108;SDS011;62466;47.566;7.786;2023-05-27T05:21:21;12.77;;;5.88;;
74108;SDS011;62466;47.566;7.786;2023-05-27T05:23:46;10.00;;;5.05;;
74108;SDS011;62466;47.566;7.786;2023-05-27T05:26:12;13.30;;;6.43;;
74108;SDS011;62466;47.566;7.786;2023-05-27T05:28:40;9.65;;;5.30;;
74108;SDS011;62466;47.566;7.786;2023-05-27T05:31:07;12.85;;;5.88;;
74108;SDS011;62466;47.566;7.786;2023-05-27T05:33:33;11.57;;;4.85;;
74108;SDS011;62466;47.566;7.786;2023-05-27T05:35:59;10.40;;;5.00;;
74108;SDS011;62466;47.566;7.786;2023-05-27T05:38:33;9.75;;;4.97;;
74108;SDS011;62466;47.566;7.786;2023-05-27T05:40:59;9.77;;;6.00;;
74108;SDS011;62466;47.566;7.786;2023-05-27T05:43:25;11.85;;;6.63;;
74108;SDS011;62466;47.566;7.786;2023-05-27T05:45:51;12.70;;;5.25;;
74108;SDS011;62466;47.566;7.786;2023-05-27T05:48:18;9.95;;;5.65;;
74108;SDS011;62466;47.566;7.786;2023-05-27T05:50:44;11.10;;;5.95;;
74108;SDS011;62466;47.566;7.786;2023-05-27T05:53:10;9.32;;;5.32;;
74108;SDS011;62466;47.566;7.786;2023-05-27T05:55:36;11.77;;;5.07;;
74108;SDS011;62466;47.566;7.786;2023-05-27T05:58:01;9.95;;;4.93;;
74108;SDS011;62466;47.566;7.786;2023-05-27T06:00:28;13.48;;;5.00;;
74108;SDS011;62466;47.566;7.786;2023-05-27T06:03:05;13.80;;;5.18;;
74108;SDS011;62466;47.566;7.786;2023-05-27T06:08:13;13.48;;;5.13;;
74108;SDS011;62466;47.566;7.786;2023-05-27T06:10:43;14.15;;;5.05;;
74108;SDS011;62466;47.566;7.786;2023-05-27T06:13:09;11.38;;;4.97;;
74108;SDS011;62466;47.566;7.786;2023-05-27T06:15:37;13.10;;;5.63;;
74108;SDS011;62466;47.566;7.786;2023-05-27T06:18:03;12.13;;;6.07;;
74108;SDS011;62466;47.566;7.786;2023-05-27T06:20:29;11.23;;;4.80;;
74108;SDS011;62466;47.566;7.786;2023-05-27T06:22:55;14.57;;;5.47;;
74108;SDS011;62466;47.566;7.786;2023-05-27T06:25:39;12.48;;;4.72;;
74108;SDS011;62466;47.566;7.786;2023-05-27T06:28:06;14.88;;;5.28;;
74108;SDS011;62466;47.566;7.786;2023-05-27T06:30:33;10.30;;;4.57;;
74108;SDS011;62466;47.566;7.786;2023-05-27T06:33:03;13.82;;;5.32;;
74108;SDS011;62466;47.566;7.786;2023-05-27T06:35:31;13.13;;;5.30;;
74108;SDS011;62466;47.566;7.786;2023-05-27T06:37:58;10.38;;;4.75;;
74108;SDS011;62466;47.566;7.786;2023-05-27T06:40:24;10.50;;;4.22;;
74108;SDS011;62466;47.566;7.786;2023-05-27T06:42:51;9.82;;;4.65;;
74108;SDS011;62466;47.566;7.786;2023-05-27T06:45:38;14.30;;;5.72;;
74108;SDS011;62466;47.566;7.786;2023-05-27T06:48:19;11.18;;;4.90;;
74108;SDS011;62466;47.566;7.786;2023-05-27T06:50:45;10.85;;;4.68;;
74108;SDS011;62466;47.566;7.786;2023-05-27T06:53:10;16.00;;;5.18;;
74108;SDS011;62466;47.566;7.786;2023-05-27T06:56:00;9.75;;;4.43;;
74108;SDS011;62466;47.566;7.786;2023-05-27T06:58:51;11.30;;;4.60;;
74108;SDS011;62466;47.566;7.786;2023-05-27T07:01:18;15.80;;;5.45;;
74108;SDS011;62466;47.566;7.786;2023-05-27T07:03:53;14.35;;;5.13;;
74108;SDS011;62466;47.566;7.786;2023-05-27T07:06:33;10.07;;;4.88;;
74108;SDS011;62466;47.566;7.786;2023-05-27T07:08:58;8.68;;;4.38;;
74108;SDS011;62466;47.566;7.786;2023-05-27T07:11:30;12.30;;;4.72;;
74108;SDS011;62466;47.566;7.786;2023-05-27T07:14:01;12.07;;;5.55;;
74108;SDS011;62466;47.566;7.786;2023-05-27T07:16:29;10.30;;;4.55;;
74108;SDS011;62466;47.566;7.786;2023-05-27T07:18:55;13.35;;;5.65;;
74108;SDS011;62466;47.566;7.786;2023-05-27T07:21:22;11.02;;;5.05;;
74108;SDS011;62466;47.566;7.786;2023-05-27T07:23:47;10.48;;;5.13;;
74108;SDS011;62466;47.566;7.786;2023-05-27T07:26:25;13.65;;;5.20;;
74108;SDS011;62466;47.566;7.786;2023-05-27T07:28:53;9.30;;;4.63;;
74108;SDS011;62466;47.566;7.786;2023-05-27T07:31:27;11.32;;;5.13;;
74108;SDS011;62466;47.566;7.786;2023-05-27T07:33:57;15.23;;;6.43;;
74108;SDS011;62466;47.566;7.786;2023-05-27T07:36:23;14.30;;;5.68;;
74108;SDS011;62466;47.566;7.786;2023-05-27T07:38:49;7.70;;;4.43;;
74108;SDS011;62466;47.566;7.786;2023-05-27T07:41:15;11.63;;;5.55;;
74108;SDS011;62466;47.566;7.786;2023-05-27T07:43:40;8.90;;;4.75;;
74108;SDS011;62466;47.566;7.786;2023-05-27T07:46:06;10.55;;;5.07;;
74108;SDS011;62466;47.566;7.786;2023-05-27T07:48:34;11.15;;;5.53;;
74108;SDS011;62466;47.566;7.786;2023-05-27T07:50:59;13.90;;;6.20;;
74108;SDS011;62466;47.566;7.786;2023-05-27T07:53:25;9.75;;;5.20;;
74108;SDS011;62466;47.566;7.786;2023-05-27T07:55:51;15.25;;;4.85;;
74108;SDS011;62466;47.566;7.786;2023-05-27T07:58:17;10.48;;;5.28;;
74108;SDS011;62466;47.566;7.786;2023-05-27T08:00:53;14.32;;;5.72;;
74108;SDS011;62466;47.566;7.786;2023-05-27T08:03:19;10.82;;;4.43;;
74108;SDS011;62466;47.566;7.786;2023-05-27T08:06:05;11.55;;;4.72;;
74108;SDS011;62466;47.566;7.786;2023-05-27T08:08:56;11.88;;;5.30;;
74108;SDS011;62466;47.566;7.786;2023-05-27T08:11:40;11.00;;;4.70;;
74108;SDS011;62466;47.566;7.786;2023-05-27T08:14:27;11.40;;;5.63;;
74108;SDS011;62466;47.566;7.786;2023-05-27T08:17:28;11.45;;;5.32;;
74108;SDS011;62466;47.566;7.786;2023-05-27T08:20:32;11.10;;;4.78;;
74108;SDS011;62466;47.566;7.786;2023-05-27T08:23:18;10.65;;;4.63;;
74108;SDS011;62466;47.566;7.786;2023-05-27T08:26:13;10.68;;;5.00;;
74108;SDS011;62466;47.566;7.786;2023-05-27T08:28:59;11.88;;;5.35;;
74108;SDS011;62466;47.566;7.786;2023-05-27T08:31:41;10.52;;;5.00;;
74108;SDS011;62466;47.566;7.786;2023-05-27T08:34:07;9.32;;;5.32;;
74108;SDS011;62466;47.566;7.786;2023-05-27T08:36:33;9.63;;;4.95;;
74108;SDS011;62466;47.566;7.786;2023-05-27T08:38:59;7.75;;;4.70;;
74108;SDS011;62466;47.566;7.786;2023-05-27T08:41:33;11.02;;;6.10;;
74108;SDS011;62466;47.566;7.786;2023-05-27T08:44:01;13.05;;;5.47;;
74108;SDS011;62466;47.566;7.786;2023-05-27T08:46:27;11.55;;;5.00;;
74108;SDS011;62466;47.566;7.786;2023-05-27T08:48:53;11.10;;;5.10;;
74108;SDS011;62466;47.566;7.786;2023-05-27T08:51:27;10.40;;;4.82;;
74108;SDS011;62466;47.566;7.786;2023-05-27T08:53:53;12.57;;;5.25;;
74108;SDS011;62466;47.566;7.786;2023-05-27T08:56:19;8.43;;;4.40;;
74108;SDS011;62466;47.566;7.786;2023-05-27T08:58:49;11.75;;;5.50;;
74108;SDS011;62466;47.566;7.786;2023-05-27T09:01:16;7.18;;;4.25;;
74108;SDS011;62466;47.566;7.786;2023-05-27T09:03:43;9.38;;;5.05;;
74108;SDS011;62466;47.566;7.786;2023-05-27T09:06:10;14.48;;;5.63;;
74108;SDS011;62466;47.566;7.786;2023-05-27T09:08:36;10.25;;;5.38;;
74108;SDS011;62466;47.566;7.786;2023-05-27T09:11:01;16.95;;;6.10;;
74108;SDS011;62466;47.566;7.786;2023-05-27T09:13:30;9.68;;;5.05;;
74108;SDS011;62466;47.566;7.786;2023-05-27T09:16:03;17.02;;;5.55;;
74108;SDS011;62466;47.566;7.786;2023-05-27T09:18:33;11.27;;;5.35;;
74108;SDS011;62466;47.566;7.786;2023-05-27T09:21:00;9.40;;;4.70;;
74108;SDS011;62466;47.566;7.786;2023-05-27T09:23:27;11.35;;;5.68;;
74108;SDS011;62466;47.566;7.786;2023-05-27T09:25:52;11.30;;;5.35;;
74108;SDS011;62466;47.566;7.786;2023-05-27T09:30:51;13.00;;;5.63;;
74108;SDS011;62466;47.566;7.786;2023-05-27T09:33:23;12.18;;;5.75;;
74108;SDS011;62466;47.566;7.786;2023-05-27T09:35:50;11.35;;;5.65;;
74108;SDS011;62466;47.566;7.786;2023-05-27T09:38:15;11.32;;;6.30;;
74108;SDS011;62466;47.566;7.786;2023-05-27T09:40:43;10.40;;;5.60;;
74108;SDS011;62466;47.566;7.786;2023-05-27T09:43:12;13.57;;;5.47;;
74108;SDS011;62466;47.566;7.786;2023-05-27T09:45:38;9.43;;;5.30;;
74108;SDS011;62466;47.566;7.786;2023-05-27T09:48:13;13.27;;;6.03;;
74108;SDS011;62466;47.566;7.786;2023-05-27T09:50:43;16.17;;;6.28;;
74108;SDS011;62466;47.566;7.786;2023-05-27T09:53:09;11.00;;;5.00;;
74108;SDS011;62466;47.566;7.786;2023-05-27T09:55:35;12.60;;;5.80;;
74108;SDS011;62466;47.566;7.786;2023-05-27T09:58:01;12.68;;;4.75;;
74108;SDS011;62466;47.566;7.786;2023-05-27T10:00:30;14.50;;;5.80;;
74108;SDS011;62466;47.566;7.786;2023-05-27T10:02:57;11.95;;;5.57;;
74108;SDS011;62466;47.566;7.786;2023-05-27T10:05:27;12.43;;;6.03;;
74108;SDS011;62466;47.566;7.786;2023-05-27T10:07:57;11.07;;;5.90;;
74108;SDS011;62466;47.566;7.786;2023-05-27T10:10:26;9.40;;;5.65;;
74108;SDS011;62466;47.566;7.786;2023-05-27T10:12:53;10.38;;;5.00;;
74108;SDS011;62466;47.566;7.786;2023-05-27T10:17:56;9.52;;;5.68;;
74108;SDS011;62466;47.566;7.786;2023-05-27T10:20:26;11.20;;;5.68;;
74108;SDS011;62466;47.566;7.786;2023-05-27T10:22:57;7.95;;;4.65;;
74108;SDS011;62466;47.566;7.786;2023-05-27T10:25:37;12.55;;;6.13;;
74108;SDS011;62466;47.566;7.786;2023-05-27T10:28:25;9.25;;;4.80;;
74108;SDS011;62466;47.566;7.786;2023-05-27T10:31:10;8.48;;;5.07;;
74108;SDS011;62466;47.566;7.786;2023-05-27T10:33:47;7.88;;;4.65;;
74108;SDS011;62466;47.566;7.786;2023-05-27T10:36:15;10.45;;;5.78;;
74108;SDS011;62466;47.566;7.786;2023-05-27T10:38:42;13.27;;;5.28;;
74108;SDS011;62466;47.566;7.786;2023-05-27T10:41:08;11.88;;;5.47;;
74108;SDS011;62466;47.566;7.786;2023-05-27T10:43:33;9.93;;;5.38;;
74108;SDS011;62466;47.566;7.786;2023-05-27T10:46:11;10.80;;;5.28;;
74108;SDS011;62466;47.566;7.786;2023-05-27T10:48:37;8.65;;;4.93;;
74108;SDS011;62466;47.566;7.786;2023-05-27T10:51:05;12.48;;;5.72;;
74108;SDS011;62466;47.566;7.786;2023-05-27T10:53:31;8.35;;;5.25;;
74108;SDS011;62466;47.566;7.786;2023-05-27T10:55:59;9.90;;;4.95;;
74108;SDS011;62466;47.566;7.786;2023-05-27T10:58:25;9.27;;;4.93;;
74108;SDS011;62466;47.566;7.786;2023-05-27T11:00:52;7.38;;;5.03;;
74108;SDS011;62466;47.566;7.786;2023-05-27T11:03:27;8.32;;;4.72;;
74108;SDS011;62466;47.566;7.786;2023-05-27T11:06:11;11.38;;;5.07;;
74108;SDS011;62466;47.566;7.786;2023-05-27T11:08:38;11.05;;;5.40;;
74108;SDS011;62466;47.566;7.786;2023-05-27T11:11:09;7.00;;;4.68;;
74108;SDS011;62466;47.566;7.786;2023-05-27T11:13:39;10.02;;;5.53;;
74108;SDS011;62466;47.566;7.786;2023-05-27T11:16:08;7.07;;;4.82;;
74108;SDS011;62466;47.566;7.786;2023-05-27T11:21:13;7.22;;;4.47;;
74108;SDS011;62466;47.566;7.786;2023-05-27T11:23:42;6.88;;;4.93;;
74108;SDS011;62466;47.566;7.786;2023-05-27T11:26:18;7.93;;;4.80;;
74108;SDS011;62466;47.566;7.786;2023-05-27T11:31:17;7.63;;;5.03;;
74108;SDS011;62466;47.566;7.786;2023-05-27T11:33:45;6.55;;;4.75;;
74108;SDS011;62466;47.566;7.786;2023-05-27T11:36:12;7.65;;;4.72;;
74108;SDS011;62466;47.566;7.786;2023-05-27T11:38:45;8.68;;;4.50;;
74108;SDS011;62466;47.566;7.786;2023-05-27T11:41:27;6.65;;;4.40;;
74108;SDS011;62466;47.566;7.786;2023-05-27T11:43:57;9.63;;;4.45;;
74108;SDS011;62466;47.566;7.786;2023-05-27T11:46:38;5.82;;;4.10;;
74108;SDS011;62466;47.566;7.786;2023-05-27T11:49:06;8.02;;;4.40;;
74108;SDS011;62466;47.566;7.786;2023-05-27T11:51:36;7.82;;;4.07;;
74108;SDS011;62466;47.566;7.786;2023-05-27T11:54:03;5.87;;;4.27;;
74108;SDS011;62466;47.566;7.786;2023-05-27T11:56:29;4.88;;;4.07;;
74108;SDS011;62466;47.566;7.786;2023-05-27T11:58:55;4.40;;;4.00;;
74108;SDS011;62466;47.566;7.786;2023-05-27T12:01:21;5.20;;;4.15;;
74108;SDS011;62466;47.566;7.786;2023-05-27T12:03:47;6.18;;;4.15;;
74108;SDS011;62466;47.566;7.786;2023-05-27T12:06:12;8.30;;;4.22;;
74108;SDS011;62466;47.566;7.786;2023-05-27T12:08:38;4.80;;;4.00;;
74108;SDS011;62466;47.566;7.786;2023-05-27T12:11:03;4.55;;;3.80;;
74108;SDS011;62466;47.566;7.786;2023-05-27T12:13:29;6.10;;;4.35;;
74108;SDS011;62466;47.566;7.786;2023-05-27T12:15:56;5.75;;;3.90;;
74108;SDS011;62466;47.566;7.786;2023-05-27T12:18:22;6.90;;;3.92;;
74108;SDS011;62466;47.566;7.786;2023-05-27T12:20:48;5.72;;;4.38;;
74108;SDS011;62466;47.566;7.786;2023-05-27T12:23:13;6.47;;;4.38;;
74108;SDS011;62466;47.566;7.786;2023-05-27T12:25:39;5.05;;;3.67;;
74108;SDS011;62466;47.566;7.786;2023-05-27T12:28:06;6.65;;;4.13;;
74108;SDS011;62466;47.566;7.786;2023-05-27T12:30:35;7.23;;;3.70;;
74108;SDS011;62466;47.566;7.786;2023-05-27T12:33:04;5.50;;;4.05;;
74108;SDS011;62466;47.566;7.786;2023-05-27T12:35:31;5.28;;;3.78;;
74108;SDS011;62466;47.566;7.786;2023-05-27T12:37:57;5.30;;;3.70;;
74108;SDS011;62466;47.566;7.786;2023-05-27T12:40:25;6.53;;;3.95;;
74108;SDS011;62466;47.566;7.786;2023-05-27T12:42:51;5.85;;;4.18;;
74108;SDS011;62466;47.566;7.786;2023-05-27T12:45:17;7.03;;;3.67;;
74108;SDS011;62466;47.566;7.786;2023-05-27T12:47:42;6.25;;;3.80;;
74108;SDS011;62466;47.566;7.786;2023-05-27T12:50:11;5.53;;;3.83;;
74108;SDS011;62466;47.566;7.786;2023-05-27T12:52:36;7.32;;;3.83;;
74108;SDS011;62466;47.566;7.786;2023-05-27T12:55:02;5.78;;;3.80;;
74108;SDS011;62466;47.566;7.786;2023-05-27T12:57:31;6.15;;;4.13;;
74108;SDS011;62466;47.566;7.786;2023-05-27T12:59:56;4.43;;;3.95;;
74108;SDS011;62466;47.566;7.786;2023-05-27T13:02:22;7.25;;;4.03;;
74108;SDS011;62466;47.566;7.786;2023-05-27T13:04:47;6.90;;;3.97;;
74108;SDS011;62466;47.566;7.786;2023-05-27T13:07:14;6.93;;;4.15;;
74108;SDS011;62466;47.566;7.786;2023-05-27T13:09:40;4.75;;;3.80;;
74108;SDS011;62466;47.566;7.786;2023-05-27T13:12:06;5.35;;;3.80;;
74108;SDS011;62466;47.566;7.786;2023-05-27T13:14:31;4.88;;;3.60;;
74108;SDS011;62466;47.566;7.786;2023-05-27T13:16:57;6.32;;;4.03;;
74108;SDS011;62466;47.566;7.786;2023-05-27T13:19:22;7.32;;;3.70;;
74108;SDS011;62466;47.566;7.786;2023-05-27T13:21:48;7.15;;;4.20;;
74108;SDS011;62466;47.566;7.786;2023-05-27T13:24:14;6.72;;;3.78;;
74108;SDS011;62466;47.566;7.786;2023-05-27T13:26:40;7.82;;;3.92;;
74108;SDS011;62466;47.566;7.786;2023-05-27T13:29:05;6.95;;;4.40;;
74108;SDS011;62466;47.566;7.786;2023-05-27T13:31:31;6.40;;;3.70;;
74108;SDS011;62466;47.566;7.786;2023-05-27T13:33:57;7.47;;;3.78;;
74108;SDS011;62466;47.566;7.786;2023-05-27T13:36:22;5.68;;;3.58;;
74108;SDS011;62466;47.566;7.786;2023-05-27T13:38:48;4.45;;;3.65;;
74108;SDS011;62466;47.566;7.786;2023-05-27T13:41:13;6.35;;;3.70;;
74108;SDS011;62466;47.566;7.786;2023-05-27T13:43:39;5.03;;;4.10;;
74108;SDS011;62466;47.566;7.786;2023-05-27T13:46:04;4.72;;;3.40;;
74108;SDS011;62466;47.566;7.786;2023-05-27T13:48:30;4.47;;;3.90;;
74108;SDS011;62466;47.566;7.786;2023-05-27T13:50:57;5.50;;;4.05;;
74108;SDS011;62466;47.566;7.786;2023-05-27T13:53:22;6.72;;;3.60;;
74108;SDS011;62466;47.566;7.786;2023-05-27T13:55:48;5.50;;;3.95;;
74108;SDS011;62466;47.566;7.786;2023-05-27T13:58:13;6.15;;;3.88;;
74108;SDS011;62466;47.566;7.786;2023-05-27T14:00:39;6.80;;;3.88;;
74108;SDS011;62466;47.566;7.786;2023-05-27T14:03:05;5.30;;;3.70;;
74108;SDS011;62466;47.566;7.786;2023-05-27T14:05:30;5.43;;;3.85;;
74108;SDS011;62466;47.566;7.786;2023-05-27T14:07:56;5.45;;;3.83;;
74108;SDS011;62466;47.566;7.786;2023-05-27T14:10:22;6.65;;;3.95;;
74108;SDS011;62466;47.566;7.786;2023-05-27T14:12:47;4.43;;;3.40;;
74108;SDS011;62466;47.566;7.786;2023-05-27T14:15:13;4.78;;;3.70;;
74108;SDS011;62466;47.566;7.786;2023-05-27T14:17:38;5.47;;;3.90;;
74108;SDS011;62466;47.566;7.786;2023-05-27T14:20:04;4.40;;;3.83;;
74108;SDS011;62466;47.566;7.786;2023-05-27T14:25:01;4.15;;;3.53;;
74108;SDS011;62466;47.566;7.786;2023-05-27T14:27:26;6.78;;;4.20;;
74108;SDS011;62466;47.566;7.786;2023-05-27T14:29:52;6.32;;;4.40;;
74108;SDS011;62466;47.566;7.786;2023-05-27T14:32:17;5.55;;;3.83;;
74108;SDS011;62466;47.566;7.786;2023-05-27T14:34:43;3.17;;;2.80;;
74108;SDS011;62466;47.566;7.786;2023-05-27T14:37:09;7.35;;;4.07;;
74108;SDS011;62466;47.566;7.786;2023-05-27T14:39:34;4.60;;;4.10;;
74108;SDS011;62466;47.566;7.786;2023-05-27T14:42:00;6.35;;;4.03;;
74108;SDS011;62466;47.566;7.786;2023-05-27T14:44:31;5.47;;;3.75;;
74108;SDS011;62466;47.566;7.786;2023-05-27T14:47:01;6.73;;;3.50;;
74108;SDS011;62466;47.566;7.786;2023-05-27T14:49:30;5.78;;;3.70;;
74108;SDS011;62466;47.566;7.786;2023-05-27T14:51:56;6.13;;;3.90;;
74108;SDS011;62466;47.566;7.786;2023-05-27T14:54:22;5.50;;;3.88;;
74108;SDS011;62466;47.566;7.786;2023-05-27T14:56:47;5.15;;;3.85;;
74108;SDS011;62466;47.566;7.786;2023-05-27T14:59:13;5.28;;;3.80;;
74108;SDS011;62466;47.566;7.786;2023-05-27T15:01:38;7.40;;;4.07;;
74108;SDS011;62466;47.566;7.786;2023-05-27T15:04:06;6.70;;;4.97;;